Time;durP1;ratioP1;P1;durP2;ratioP2;P2;SDS_P1;SDS_P2;PMS_P1;PMS_P2;Temp;Humidity;BMP_temperature;BMP_pressure;BME280_temperature;BME280_humidity;BME280_pressure;Samples;Min_cycle;Max_cycle;Signal;HPM_P1;HPM_P2
2022/01/12 00:00:04;;;;;;;;;;;;;;;3.49;nan;102451.06;5021458;28;19953;-85
2022/01/12 00:02:29;;;;;;;;;;;;;;;3.49;nan;102456.28;5034500;28;19928;-84
2022/01/12 00:04:55;;;;;;;;;;;;;;;3.47;nan;102446.81;5016943;28;20260;-86
2022/01/12 00:07:20;;;;;;;;;;;;;;;3.49;nan;102447.59;5019571;28;19922;-86
2022/01/12 00:09:45;;;;;;;;;;;;;;;3.46;nan;102452.97;5002960;28;19925;-84
2022/01/12 00:12:10;;;;;;;;;;;;;;;3.45;nan;102454.69;5033218;28;19923;-85
2022/01/12 00:14:36;;;;;;;;;;;;;;;3.44;nan;102455.63;5018079;28;19924;-85
2022/01/12 00:17:01;;;;;;;;;;;;;;;3.40;nan;102448.78;5019446;28;19957;-85
2022/01/12 00:19:28;;;;;;;;;;;;;;;3.42;nan;102452.19;5002111;28;19922;-85
2022/01/12 00:21:55;;;;;;;;;;;;;;;3.44;nan;102453.00;5002427;28;20306;-86
2022/01/12 00:24:21;;;;;;;;;;;;;;;3.43;nan;102450.44;5000982;28;19959;-85
2022/01/12 00:34:59;;;;;;;;;;;;;;;3.32;nan;102450.84;5017566;28;20406;-85
2022/01/12 00:37:24;;;;;;;;;;;;;;;3.32;nan;102449.09;5003826;28;19922;-84
2022/01/12 00:39:49;;;;;;;;;;;;;;;3.37;nan;102456.75;5018655;28;19917;-85
2022/01/12 00:42:14;;;;;;;;;;;;;;;3.26;nan;102445.84;5000342;28;19931;-85
2022/01/12 00:44:44;;;;;;;;;;;;;;;3.25;nan;102449.38;5005338;28;19918;-85
2022/01/12 00:47:10;;;;;;;;;;;;;;;3.15;nan;102448.88;5001088;28;19922;-85
2022/01/12 00:49:36;;;;;;;;;;;;;;;3.06;nan;102455.28;4983972;28;1759019;-87
2022/01/12 00:52:01;;;;;;;;;;;;;;;2.99;nan;102448.56;5022965;28;20016;-85
2022/01/12 00:54:27;;;;;;;;;;;;;;;2.99;nan;102443.34;5019777;28;19922;-85
2022/01/12 00:56:52;;;;;;;;;;;;;;;2.97;nan;102453.00;5002618;28;19985;-85
2022/01/12 00:59:17;;;;;;;;;;;;;;;2.96;nan;102454.75;5002623;28;19921;-85
2022/01/12 01:01:43;;;;;;;;;;;;;;;2.95;nan;102467.88;5014097;28;19925;-85
2022/01/12 01:04:08;;;;;;;;;;;;;;;2.91;nan;102469.75;5024564;28;19928;-85
2022/01/12 01:06:35;;;;;;;;;;;;;;;2.88;nan;102471.59;5021941;28;20333;-85
2022/01/12 01:09:00;;;;;;;;;;;;;;;2.90;nan;102475.88;5042233;28;19921;-85
2022/01/12 01:11:26;;;;;;;;;;;;;;;2.87;nan;102475.13;5038394;28;19967;-85
2022/01/12 01:13:57;;;;;;;;;;;;;;;2.82;nan;102483.13;5040735;28;19921;-86
2022/01/12 01:16:31;;;;;;;;;;;;;;;2.80;nan;102490.16;5038872;28;19921;-86
2022/01/12 01:27:08;;;;;;;;;;;;;;;2.66;nan;102493.25;5034614;28;19925;-85
2022/01/12 01:29:33;;;;;;;;;;;;;;;2.65;nan;102491.56;5042310;28;19925;-84
2022/01/12 01:31:58;;;;;;;;;;;;;;;2.67;nan;102481.03;5041991;28;19926;-85
2022/01/12 01:34:26;;;;;;;;;;;;;;;2.63;nan;102492.50;5041663;28;20438;-85
2022/01/12 01:36:53;;;;;;;;;;;;;;;2.64;nan;102484.59;5040714;28;19960;-84
2022/01/12 01:39:19;;;;;;;;;;;;;;;2.59;nan;102475.22;5039984;28;19921;-86
2022/01/12 01:41:53;;;;;;;;;;;;;;;2.52;nan;102475.44;5031022;28;19921;-85
2022/01/12 01:54:56;;;;;;;;;;;;;;;2.27;nan;102451.91;5041136;28;20309;-85
2022/01/12 01:57:24;;;;;;;;;;;;;;;2.22;nan;102456.44;5040531;28;20008;-85
2022/01/12 01:59:49;;;;;;;;;;;;;;;2.20;nan;102458.25;5039399;28;20000;-86
2022/01/12 02:02:14;;;;;;;;;;;;;;;2.17;nan;102455.75;5036791;28;20438;-86
2022/01/12 02:04:40;;;;;;;;;;;;;;;2.12;nan;102465.44;5039437;28;19921;-85
2022/01/12 02:07:05;;;;;;;;;;;;;;;2.11;nan;102468.97;5038023;28;19932;-86
2022/01/12 02:09:30;;;;;;;;;;;;;;;2.03;nan;102473.59;5040626;28;19935;-85
2022/01/12 02:11:56;;;;;;;;;;;;;;;2.00;nan;102473.66;5040290;28;19948;-85
2022/01/12 02:14:21;;;;;;;;;;;;;;;1.97;nan;102468.56;5039127;28;19964;-85
2022/01/12 02:16:54;;;;;;;;;;;;;;;1.94;nan;102472.13;5038774;28;19931;-85
2022/01/12 02:35:52;;;;;;;;;;;;;;;1.27;nan;102486.28;5043081;28;19928;-86
2022/01/12 02:40:49;;;;;;;;;;;;;;;1.10;nan;102475.47;5042293;28;19921;-85
2022/01/12 02:43:26;;;;;;;;;;;;;;;0.96;nan;102488.88;5040266;28;19921;-85
2022/01/12 02:53:46;;;;;;;;;;;;;;;0.58;nan;102500.31;5039921;28;20003;-85
2022/01/12 02:56:19;;;;;;;;;;;;;;;0.54;nan;102506.47;5043354;28;19944;-84
2022/01/12 02:58:45;;;;;;;;;;;;;;;0.51;nan;102511.75;5043257;28;19925;-84
2022/01/12 03:03:56;;;;;;;;;;;;;;;0.45;nan;102501.50;5033627;28;19927;-85
2022/01/12 03:06:26;;;;;;;;;;;;;;;0.46;nan;102496.25;5037904;28;19952;-86
2022/01/12 03:08:51;;;;;;;;;;;;;;;0.36;nan;102497.38;5044352;28;19932;-85
2022/01/12 03:11:19;;;;;;;;;;;;;;;0.31;nan;102496.63;5033979;28;19926;-86
2022/01/12 03:13:44;;;;;;;;;;;;;;;0.31;nan;102501.81;5037708;28;20007;-85
2022/01/12 03:16:15;;;;;;;;;;;;;;;0.34;nan;102500.00;5041038;28;19929;-85
2022/01/12 03:18:42;;;;;;;;;;;;;;;0.31;nan;102500.09;5040969;28;19929;-85
2022/01/12 03:21:07;;;;;;;;;;;;;;;0.27;nan;102505.41;5036092;28;19921;-85
2022/01/12 03:23:33;;;;;;;;;;;;;;;0.24;nan;102495.94;5042111;28;20399;-85
2022/01/12 03:25:58;;;;;;;;;;;;;;;0.23;nan;102491.59;5041104;28;20084;-85
2022/01/12 03:28:24;;;;;;;;;;;;;;;0.25;nan;102487.22;5041027;28;19929;-85
2022/01/12 03:34:06;;;;;;;;;;;;;;;0.15;nan;102470.97;5042323;28;19921;-85
2022/01/12 03:38:47;;;;;;;;;;;;;;;0.11;nan;102486.69;5040818;28;19948;-86
2022/01/12 03:41:12;;;;;;;;;;;;;;;0.08;nan;102500.63;5039417;28;19925;-85
2022/01/12 03:43:38;;;;;;;;;;;;;;;0.06;nan;102504.16;5036934;28;19921;-85
2022/01/12 03:46:06;;;;;;;;;;;;;;;0.01;nan;102498.22;5040501;28;19928;-85
2022/01/12 03:48:31;;;;;;;;;;;;;;;-0.12;nan;102508.91;5039705;28;19921;-85
2022/01/12 03:50:56;;;;;;;;;;;;;;;-0.10;nan;102524.44;5042954;28;20095;-85
2022/01/12 03:53:22;;;;;;;;;;;;;;;-0.09;nan;102521.81;5042791;28;19917;-85
2022/01/12 03:55:47;;;;;;;;;;;;;;;-0.03;nan;102529.47;5039681;28;19975;-85
2022/01/12 03:58:12;;;;;;;;;;;;;;;-0.02;nan;102522.56;5041808;28;19925;-86
2022/01/12 04:00:38;;;;;;;;;;;;;;;-0.06;nan;102513.09;5038228;28;19971;-85
2022/01/12 04:03:05;;;;;;;;;;;;;;;-0.08;nan;102509.66;5037470;28;20036;-85
2022/01/12 04:08:23;;;;;;;;;;;;;;;-0.07;nan;102514.84;5043963;28;20390;-85
2022/01/12 04:10:55;;;;;;;;;;;;;;;-0.07;nan;102521.75;5045741;28;19939;-85
2022/01/12 04:13:22;;;;;;;;;;;;;;;-0.08;nan;102527.88;5042733;28;19925;-86
2022/01/12 04:15:50;;;;;;;;;;;;;;;-0.08;nan;102535.66;5041854;28;20014;-87
2022/01/12 04:18:15;;;;;;;;;;;;;;;-0.08;nan;102546.91;5038685;28;19916;-85
2022/01/12 04:20:49;;;;;;;;;;;;;;;-0.12;nan;102550.50;5040961;28;19949;-85
2022/01/12 04:23:17;;;;;;;;;;;;;;;-0.04;nan;102558.13;5044999;28;19921;-87
2022/01/12 04:25:51;;;;;;;;;;;;;;;0.01;nan;102548.47;5046516;28;19927;-85
2022/01/12 04:28:17;;;;;;;;;;;;;;;-0.01;nan;102550.25;5033225;28;19944;-85
2022/01/12 04:30:42;;;;;;;;;;;;;;;-0.02;nan;102543.34;5037262;28;19925;-85
2022/01/12 04:33:07;;;;;;;;;;;;;;;-0.02;nan;102551.16;5043063;28;19996;-85
2022/01/12 04:35:36;;;;;;;;;;;;;;;0.01;nan;102558.03;5041950;28;20005;-85
2022/01/12 04:38:03;;;;;;;;;;;;;;;0.08;nan;102557.84;5041387;28;19928;-86
2022/01/12 04:40:28;;;;;;;;;;;;;;;0.06;nan;102544.03;5039402;28;19971;-85
2022/01/12 04:42:54;;;;;;;;;;;;;;;0.07;nan;102545.75;5037504;28;19925;-86
2022/01/12 04:45:56;;;;;;;;;;;;;;;0.04;nan;102548.41;5043130;28;19925;-85
2022/01/12 04:50:40;;;;;;;;;;;;;;;0.04;nan;102534.53;5027358;28;19940;-85
2022/01/12 04:53:05;;;;;;;;;;;;;;;0.07;nan;102535.34;5028068;28;19924;-85
2022/01/12 04:55:30;;;;;;;;;;;;;;;0.04;nan;102544.94;5037069;28;19922;-85
2022/01/12 04:57:56;;;;;;;;;;;;;;;0.03;nan;102544.09;5043352;28;19921;-85
2022/01/12 05:00:22;;;;;;;;;;;;;;;-0.01;nan;102539.84;5038826;28;19964;-85
2022/01/12 05:08:22;;;;;;;;;;;;;;;-0.03;nan;102555.47;5041576;28;20004;-85
2022/01/12 05:13:32;;;;;;;;;;;;;;;-0.09;nan;102553.03;5032772;28;19932;-86
2022/01/12 05:15:58;;;;;;;;;;;;;;;-0.11;nan;102557.41;5043697;28;19925;-85
2022/01/12 05:18:24;;;;;;;;;;;;;;;-0.10;nan;102547.84;5039555;28;19965;-85
2022/01/12 05:20:50;;;;;;;;;;;;;;;-0.18;nan;102544.56;5040941;28;19985;-84
2022/01/12 05:23:15;;;;;;;;;;;;;;;-0.23;nan;102545.50;5043028;28;19924;-85
2022/01/12 05:25:40;;;;;;;;;;;;;;;-0.19;nan;102554.13;5033832;28;19917;-85
2022/01/12 05:28:06;;;;;;;;;;;;;;;-0.20;nan;102544.59;5036137;28;19945;-86
2022/01/12 05:30:32;;;;;;;;;;;;;;;-0.27;nan;102538.66;5040327;28;19931;-85
2022/01/12 05:32:58;;;;;;;;;;;;;;;-0.25;nan;102541.25;5040021;28;19927;-85
2022/01/12 05:35:25;;;;;;;;;;;;;;;-0.29;nan;102545.63;5039932;28;19984;-85
2022/01/12 05:37:50;;;;;;;;;;;;;;;-0.29;nan;102550.84;5038387;28;19924;-84
2022/01/12 05:40:16;;;;;;;;;;;;;;;-0.30;nan;102551.72;5036327;28;19921;-84
2022/01/12 05:42:43;;;;;;;;;;;;;;;-0.31;nan;102550.03;5037195;28;19921;-84
2022/01/12 05:45:09;;;;;;;;;;;;;;;-0.34;nan;102547.47;5036249;28;19921;-84
2022/01/12 05:50:08;;;;;;;;;;;;;;;-0.33;nan;102546.59;5036458;28;19987;-84
2022/01/12 05:52:33;;;;;;;;;;;;;;;-0.35;nan;102540.59;5036456;28;19925;-85
2022/01/12 05:55:02;;;;;;;;;;;;;;;-0.38;nan;102538.06;5028490;28;19952;-84
2022/01/12 05:57:29;;;;;;;;;;;;;;;-0.43;nan;102540.75;5037698;28;19917;-84
2022/01/12 05:59:54;;;;;;;;;;;;;;;-0.47;nan;102536.50;5038657;28;19917;-84
2022/01/12 06:02:20;;;;;;;;;;;;;;;-0.49;nan;102525.25;5035739;28;19917;-86
2022/01/12 06:04:45;;;;;;;;;;;;;;;-0.54;nan;102532.31;5035946;28;20367;-85
2022/01/12 06:07:10;;;;;;;;;;;;;;;-0.53;nan;102527.97;5039249;28;19980;-85
2022/01/12 06:09:35;;;;;;;;;;;;;;;-0.54;nan;102534.06;5042486;28;19917;-85
2022/01/12 06:12:01;;;;;;;;;;;;;;;-0.63;nan;102540.28;5040949;28;19925;-85
2022/01/12 06:14:26;;;;;;;;;;;;;;;-0.72;nan;102549.09;5039447;28;19928;-84
2022/01/12 06:16:52;;;;;;;;;;;;;;;-0.73;nan;102557.78;5038331;28;20379;-85
2022/01/12 06:19:18;;;;;;;;;;;;;;;-0.72;nan;102559.47;5026918;28;19928;-84
2022/01/12 06:21:43;;;;;;;;;;;;;;;-0.60;nan;102561.00;5042115;28;19960;-85
2022/01/12 06:24:09;;;;;;;;;;;;;;;-0.64;nan;102569.75;5042223;28;19921;-85
2022/01/12 06:26:36;;;;;;;;;;;;;;;-0.71;nan;102584.59;5040633;28;19948;-85
2022/01/12 06:29:23;;;;;;;;;;;;;;;-0.71;nan;102582.00;5034826;28;19921;-85
2022/01/12 06:31:50;;;;;;;;;;;;;;;-0.68;nan;102592.31;5038110;28;19925;-85
2022/01/12 06:34:15;;;;;;;;;;;;;;;-0.67;nan;102595.78;5041186;28;19921;-86
2022/01/12 06:36:40;;;;;;;;;;;;;;;-0.70;nan;102604.47;5039282;28;20337;-84
2022/01/12 06:39:07;;;;;;;;;;;;;;;-0.69;nan;102611.41;5042569;28;19921;-84
2022/01/12 06:41:33;;;;;;;;;;;;;;;-0.63;nan;102625.16;5033651;28;20032;-84
2022/01/12 06:43:58;;;;;;;;;;;;;;;-0.54;nan;102627.59;5041066;28;20446;-85
2022/01/12 06:46:28;;;;;;;;;;;;;;;-0.44;nan;102631.72;5037906;28;19986;-86
2022/01/12 06:48:53;;;;;;;;;;;;;;;-0.40;nan;102614.34;5037989;28;19925;-85
2022/01/12 06:51:18;;;;;;;;;;;;;;;-0.34;nan;102615.06;5048780;28;19933;-85
2022/01/12 06:53:43;;;;;;;;;;;;;;;-0.33;nan;102605.53;5046058;28;19931;-85
2022/01/12 06:56:08;;;;;;;;;;;;;;;-0.38;nan;102609.94;5043646;28;19917;-85
2022/01/12 06:58:34;;;;;;;;;;;;;;;-0.34;nan;102614.22;5041289;28;19925;-86
2022/01/12 07:01:00;;;;;;;;;;;;;;;-0.34;nan;102622.00;5038531;28;19976;-84
2022/01/12 07:03:25;;;;;;;;;;;;;;;-0.29;nan;102627.97;5032985;28;19922;-88
2022/01/12 07:05:50;;;;;;;;;;;;;;;-0.31;nan;102633.22;5039303;28;19921;-85
2022/01/12 07:08:15;;;;;;;;;;;;;;;-0.29;nan;102647.00;5042108;28;19929;-86
2022/01/12 07:10:41;;;;;;;;;;;;;;;-0.33;nan;102650.59;5039784;28;19932;-85
2022/01/12 07:13:10;;;;;;;;;;;;;;;-0.32;nan;102646.22;5038735;28;20194;-85
2022/01/12 07:15:35;;;;;;;;;;;;;;;-0.28;nan;102642.69;5038129;28;19925;-85
2022/01/12 07:18:04;;;;;;;;;;;;;;;-0.24;nan;102640.00;5036888;28;20016;-84
2022/01/12 07:20:29;;;;;;;;;;;;;;;-0.18;nan;102645.97;5037717;28;20297;-85
2022/01/12 07:22:55;;;;;;;;;;;;;;;-0.13;nan;102636.34;5039672;28;19983;-85
2022/01/12 07:25:20;;;;;;;;;;;;;;;-0.15;nan;102635.50;5028176;28;19922;-85
2022/01/12 07:27:45;;;;;;;;;;;;;;;-0.15;nan;102631.16;5034365;28;19921;-85
2022/01/12 07:30:11;;;;;;;;;;;;;;;-0.11;nan;102635.41;5037286;28;19922;-84
2022/01/12 07:32:36;;;;;;;;;;;;;;;-0.13;nan;102634.59;5040199;28;19917;-84
2022/01/12 07:35:02;;;;;;;;;;;;;;;-0.14;nan;102651.09;5031339;28;19918;-84
2022/01/12 07:37:27;;;;;;;;;;;;;;;-0.15;nan;102648.50;5039765;28;19959;-84
2022/01/12 07:39:52;;;;;;;;;;;;;;;-0.06;nan;102658.72;5035862;28;19929;-85
2022/01/12 07:42:17;;;;;;;;;;;;;;;-0.14;nan;102669.28;5048728;28;20366;-86
2022/01/12 07:44:43;;;;;;;;;;;;;;;-0.16;nan;102672.81;5038869;28;20012;-85
2022/01/12 07:47:08;;;;;;;;;;;;;;;-0.11;nan;102676.16;5040301;28;20008;-84
2022/01/12 07:49:34;;;;;;;;;;;;;;;-0.14;nan;102671.88;5032532;28;19932;-86
2022/01/12 07:52:00;;;;;;;;;;;;;;;-0.15;nan;102674.50;5036988;28;19925;-85
2022/01/12 07:54:25;;;;;;;;;;;;;;;-0.21;nan;102675.50;5037639;28;19936;-85
2022/01/12 07:56:50;;;;;;;;;;;;;;;-0.17;nan;102686.69;5033747;28;19959;-85
2022/01/12 07:59:16;;;;;;;;;;;;;;;-0.27;nan;102681.66;5020416;28;19929;-85
2022/01/12 08:01:41;;;;;;;;;;;;;;;-0.27;nan;102680.78;5029636;28;19929;-85
2022/01/12 08:04:06;;;;;;;;;;;;;;;-0.27;nan;102680.78;5023760;28;19975;-85
2022/01/12 08:06:31;;;;;;;;;;;;;;;-0.25;nan;102684.22;5026075;28;19929;-84
2022/01/12 08:08:57;;;;;;;;;;;;;;;-0.19;nan;102699.72;5035742;28;19971;-86
2022/01/12 08:11:22;;;;;;;;;;;;;;;-0.17;nan;102705.72;5038930;28;19928;-85
2022/01/12 08:13:49;;;;;;;;;;;;;;;-0.14;nan;102700.50;5026374;28;19929;-85
2022/01/12 08:16:14;;;;;;;;;;;;;;;-0.13;nan;102714.34;5033921;28;19932;-85
2022/01/12 08:18:39;;;;;;;;;;;;;;;-0.05;nan;102723.72;5024626;28;19921;-85
2022/01/12 08:21:06;;;;;;;;;;;;;;;-0.05;nan;102730.66;5028247;28;19920;-85
2022/01/12 08:23:31;;;;;;;;;;;;;;;0.01;nan;102733.13;5026178;28;19926;-85
2022/01/12 08:25:57;;;;;;;;;;;;;;;0.07;nan;102737.34;5032130;28;19951;-85
2022/01/12 08:28:22;;;;;;;;;;;;;;;-0.09;nan;102732.47;5025330;28;19936;-85
2022/01/12 08:30:47;;;;;;;;;;;;;;;0.02;nan;102723.59;5023402;28;19921;-85
2022/01/12 08:33:13;;;;;;;;;;;;;;;0.26;nan;102722.25;5037802;28;19989;-85
2022/01/12 08:35:38;;;;;;;;;;;;;;;0.46;nan;102729.66;5033791;28;19921;-85
2022/01/12 08:38:03;;;;;;;;;;;;;;;0.59;nan;102728.47;5037889;28;19999;-85
2022/01/12 08:40:29;;;;;;;;;;;;;;;0.69;nan;102731.75;5036428;28;19921;-86
2022/01/12 08:42:55;;;;;;;;;;;;;;;0.57;nan;102736.34;5038899;28;20422;-86
2022/01/12 08:45:21;;;;;;;;;;;;;;;0.47;nan;102745.22;5039350;28;19928;-83
2022/01/12 08:47:47;;;;;;;;;;;;;;;0.81;nan;102747.09;5034367;28;19921;-86
2022/01/12 08:50:12;;;;;;;;;;;;;;;0.97;nan;102739.78;5028821;28;19981;-86
2022/01/12 08:52:43;;;;;;;;;;;;;;;1.14;nan;102742.84;5036283;28;20409;-86
2022/01/12 08:55:09;;;;;;;;;;;;;;;1.14;nan;102742.00;5029383;28;19966;-85
2022/01/12 08:57:34;;;;;;;;;;;;;;;1.24;nan;102743.50;5028188;28;19925;-86
2022/01/12 09:00:00;;;;;;;;;;;;;;;1.28;nan;102742.53;5034767;28;19982;-86
2022/01/12 09:02:26;;;;;;;;;;;;;;;1.27;nan;102751.25;5021579;28;20371;-85
2022/01/12 09:04:51;;;;;;;;;;;;;;;1.24;nan;102753.91;5033591;28;19928;-86
2022/01/12 09:07:16;;;;;;;;;;;;;;;1.27;nan;102766.91;5033068;28;19941;-85
2022/01/12 09:09:42;;;;;;;;;;;;;;;1.20;nan;102775.75;5035794;28;19921;-85
2022/01/12 09:12:07;;;;;;;;;;;;;;;1.12;nan;102772.44;5020922;28;19928;-86
2022/01/12 09:14:33;;;;;;;;;;;;;;;1.15;nan;102778.47;5034163;28;19921;-85
2022/01/12 09:16:59;;;;;;;;;;;;;;;0.99;nan;102777.94;5034603;28;19929;-85
2022/01/12 09:19:25;;;;;;;;;;;;;;;1.11;nan;102787.22;5034953;28;19921;-85
2022/01/12 09:21:50;;;;;;;;;;;;;;;1.14;nan;102794.97;5031133;28;19928;-86
2022/01/12 09:24:16;;;;;;;;;;;;;;;1.18;nan;102791.41;5022234;28;19932;-85
2022/01/12 09:26:41;;;;;;;;;;;;;;;1.26;nan;102791.22;5034196;28;19921;-86
2022/01/12 09:29:06;;;;;;;;;;;;;;;1.39;nan;102790.06;5024689;28;19974;-85
2022/01/12 09:31:32;;;;;;;;;;;;;;;1.47;nan;102788.09;5039516;28;19925;-86
2022/01/12 09:33:57;;;;;;;;;;;;;;;1.51;nan;102785.44;5047174;28;19931;-87
2022/01/12 09:36:22;;;;;;;;;;;;;;;1.55;nan;102787.06;5043815;28;19921;-86
2022/01/12 09:38:48;;;;;;;;;;;;;;;1.45;nan;102786.44;5040751;28;19917;-86
2022/01/12 09:41:13;;;;;;;;;;;;;;;1.59;nan;102800.00;5038877;28;19929;-86
2022/01/12 09:43:41;;;;;;;;;;;;;;;1.50;nan;102800.22;5051550;28;19960;-87
2022/01/12 09:46:07;;;;;;;;;;;;;;;1.34;nan;102794.53;5037197;28;19928;-86
2022/01/12 09:48:36;;;;;;;;;;;;;;;1.54;nan;102796.63;5038693;28;20325;-88
2022/01/12 09:51:04;;;;;;;;;;;;;;;1.69;nan;102795.41;5037572;28;19925;-86
2022/01/12 09:53:29;;;;;;;;;;;;;;;1.88;nan;102787.97;5037045;28;19929;-86
2022/01/12 09:55:56;;;;;;;;;;;;;;;1.87;nan;102788.88;5032299;28;19921;-86
2022/01/12 09:58:21;;;;;;;;;;;;;;;1.91;nan;102783.53;5032064;28;19964;-86
2022/01/12 10:00:56;;;;;;;;;;;;;;;2.06;nan;102770.97;5037288;28;19921;-87
2022/01/12 10:03:23;;;;;;;;;;;;;;;2.19;nan;102771.47;5039063;28;19943;-88
2022/01/12 10:05:49;;;;;;;;;;;;;;;2.30;nan;102766.84;5037235;28;19989;-87
2022/01/12 10:08:15;;;;;;;;;;;;;;;2.41;nan;102772.63;5036675;28;19940;-88
2022/01/12 10:10:41;;;;;;;;;;;;;;;2.51;nan;102766.22;5018261;28;20461;-87
2022/01/12 10:13:17;;;;;;;;;;;;;;;2.71;nan;102767.38;5029502;28;19922;-86
2022/01/12 10:15:42;;;;;;;;;;;;;;;2.85;nan;102759.13;5021570;28;19928;-86
2022/01/12 10:18:07;;;;;;;;;;;;;;;2.96;nan;102770.97;5008023;28;19917;-85
2022/01/12 10:20:42;;;;;;;;;;;;;;;2.99;nan;102777.84;5015896;28;20514;-86
2022/01/12 10:23:10;;;;;;;;;;;;;;;3.13;nan;102782.66;5040217;28;20055;-86
2022/01/12 10:25:36;;;;;;;;;;;;;;;3.17;nan;102781.63;5039202;28;19921;-85
2022/01/12 10:28:31;;;;;;;;;;;;;;;3.25;nan;102784.88;5025769;28;19928;-87
2022/01/12 10:30:58;;;;;;;;;;;;;;;3.30;nan;102788.19;5031049;28;20308;-88
2022/01/12 10:33:25;;;;;;;;;;;;;;;3.31;nan;102789.06;5031966;28;19921;-85
2022/01/12 10:35:54;;;;;;;;;;;;;;;3.36;nan;102784.53;5035088;28;19921;-86
2022/01/12 10:38:19;;;;;;;;;;;;;;;3.22;nan;102782.38;5026189;28;19928;-85
2022/01/12 10:40:52;;;;;;;;;;;;;;;3.05;nan;102802.94;5031827;28;19921;-86
2022/01/12 10:43:37;;;;;;;;;;;;;;;3.07;nan;102796.75;5034283;28;19921;-86
2022/01/12 10:46:04;;;;;;;;;;;;;;;3.01;nan;102794.34;5029021;28;19921;-85
2022/01/12 10:48:40;;;;;;;;;;;;;;;2.96;nan;102799.72;5030016;28;19921;-86
2022/01/12 10:51:06;;;;;;;;;;;;;;;3.01;nan;102791.75;5034266;28;20008;-86
2022/01/12 10:53:33;;;;;;;;;;;;;;;3.12;nan;102779.19;5032841;28;19953;-87
2022/01/12 10:56:01;;;;;;;;;;;;;;;3.11;nan;102774.84;5037631;28;20341;-86
2022/01/12 10:58:26;;;;;;;;;;;;;;;3.07;nan;102781.06;5036471;28;19925;-86
2022/01/12 11:00:52;;;;;;;;;;;;;;;3.30;nan;102766.44;5025523;28;20152;-86
2022/01/12 11:03:18;;;;;;;;;;;;;;;3.43;nan;102770.34;4998477;28;19921;-87
2022/01/12 11:05:43;;;;;;;;;;;;;;;3.50;nan;102761.38;4999129;28;19952;-86
2022/01/12 11:08:10;;;;;;;;;;;;;;;3.56;nan;102761.19;5029344;28;19925;-86
2022/01/12 11:10:35;;;;;;;;;;;;;;;3.43;nan;102753.81;5033569;28;19925;-86
2022/01/12 11:13:01;;;;;;;;;;;;;;;3.28;nan;102763.00;5035718;28;19928;-86
2022/01/12 11:15:26;;;;;;;;;;;;;;;3.43;nan;102762.50;5028975;28;19918;-86
2022/01/12 11:17:53;;;;;;;;;;;;;;;3.44;nan;102759.00;5042912;28;19921;-86
2022/01/12 11:20:26;;;;;;;;;;;;;;;3.31;nan;102747.22;5028191;28;19951;-86
2022/01/12 11:23:03;;;;;;;;;;;;;;;3.39;nan;102748.69;5038514;28;19988;-86
2022/01/12 11:25:31;;;;;;;;;;;;;;;3.47;nan;102737.97;5028708;28;19936;-86
2022/01/12 11:28:14;;;;;;;;;;;;;;;3.49;nan;102735.31;5031151;28;19972;-85
2022/01/12 11:30:48;;;;;;;;;;;;;;;3.32;nan;102735.88;5026664;28;19925;-86
2022/01/12 11:33:14;;;;;;;;;;;;;;;3.19;nan;102738.88;5034601;28;19925;-87
2022/01/12 11:35:42;;;;;;;;;;;;;;;3.26;nan;102739.53;5028434;28;19921;-86
2022/01/12 11:38:18;;;;;;;;;;;;;;;3.29;nan;102749.91;5027276;28;19952;-85
2022/01/12 11:40:43;;;;;;;;;;;;;;;3.40;nan;102754.75;5034738;28;20106;-86
2022/01/12 11:43:36;;;;;;;;;;;;;;;3.33;nan;102753.25;5037021;28;19944;-84
2022/01/12 11:46:11;;;;;;;;;;;;;;;3.49;nan;102758.84;5001885;28;19922;-85
2022/01/12 11:48:47;;;;;;;;;;;;;;;3.55;nan;102761.25;5029772;28;19928;-86
2022/01/12 11:51:13;;;;;;;;;;;;;;;3.48;nan;102772.81;5008760;28;20158;-85
2022/01/12 11:53:46;;;;;;;;;;;;;;;3.61;nan;102768.91;5021680;28;19979;-86
2022/01/12 11:56:12;;;;;;;;;;;;;;;3.63;nan;102764.47;5025506;28;19944;-85
2022/01/12 11:58:49;;;;;;;;;;;;;;;3.57;nan;102760.28;5026425;28;20375;-85
2022/01/12 12:01:15;;;;;;;;;;;;;;;3.50;nan;102764.00;5026530;28;19921;-85
2022/01/12 12:03:40;;;;;;;;;;;;;;;3.58;nan;102756.78;5035229;28;19932;-85
2022/01/12 12:06:14;;;;;;;;;;;;;;;3.49;nan;102756.22;5029841;28;20279;-86
2022/01/12 12:08:54;;;;;;;;;;;;;;;3.55;nan;102753.38;5032817;28;19929;-85
2022/01/12 12:11:19;;;;;;;;;;;;;;;3.66;nan;102742.56;5032539;28;19933;-86
2022/01/12 12:13:44;;;;;;;;;;;;;;;3.64;nan;102737.38;5037354;28;19920;-86
2022/01/12 12:16:10;;;;;;;;;;;;;;;3.73;nan;102729.22;5028337;28;19975;-86
2022/01/12 12:18:36;;;;;;;;;;;;;;;3.84;nan;102734.09;5025465;28;19979;-86
2022/01/12 12:21:01;;;;;;;;;;;;;;;3.99;nan;102736.16;5028184;28;19921;-86
2022/01/12 12:23:30;;;;;;;;;;;;;;;4.01;nan;102747.44;5026544;28;19959;-85
2022/01/12 12:25:58;;;;;;;;;;;;;;;3.90;nan;102744.34;5033847;28;19990;-86
2022/01/12 12:28:23;;;;;;;;;;;;;;;3.88;nan;102759.22;5033629;28;20382;-86
2022/01/12 12:30:49;;;;;;;;;;;;;;;3.92;nan;102762.63;5031377;28;19933;-85
2022/01/12 12:33:15;;;;;;;;;;;;;;;3.92;nan;102752.16;5035814;28;19921;-85
2022/01/12 12:35:41;;;;;;;;;;;;;;;4.14;nan;102733.91;5035330;28;19921;-86
2022/01/12 12:38:08;;;;;;;;;;;;;;;4.22;nan;102730.09;5032339;28;19921;-86
2022/01/12 12:40:33;;;;;;;;;;;;;;;4.22;nan;102729.25;5036324;28;19921;-86
2022/01/12 12:43:13;;;;;;;;;;;;;;;4.29;nan;102712.41;5033654;28;19981;-86
2022/01/12 12:45:49;;;;;;;;;;;;;;;4.39;nan;102711.13;5048419;28;19935;-86
2022/01/12 12:48:18;;;;;;;;;;;;;;;4.25;nan;102711.66;5029021;28;20367;-86
2022/01/12 12:50:44;;;;;;;;;;;;;;;4.20;nan;102713.59;5025827;28;19933;-85
2022/01/12 12:53:09;;;;;;;;;;;;;;;4.18;nan;102715.41;5034108;28;19921;-85
2022/01/12 12:55:40;;;;;;;;;;;;;;;4.08;nan;102710.56;5035839;28;19928;-86
2022/01/12 12:58:06;;;;;;;;;;;;;;;4.07;nan;102717.56;5034853;28;19917;-86
2022/01/12 13:00:32;;;;;;;;;;;;;;;4.04;nan;102718.53;5031550;28;19952;-86
2022/01/12 13:02:58;;;;;;;;;;;;;;;4.11;nan;102710.47;5038160;28;19928;-85
2022/01/12 13:05:24;;;;;;;;;;;;;;;4.11;nan;102702.59;5037362;28;19979;-85
2022/01/12 13:07:50;;;;;;;;;;;;;;;4.07;nan;102696.59;5027730;28;19944;-86
2022/01/12 13:10:17;;;;;;;;;;;;;;;4.07;nan;102706.22;5028947;28;19924;-85
2022/01/12 13:12:45;;;;;;;;;;;;;;;4.13;nan;102704.25;5034013;28;19929;-86
2022/01/12 13:15:16;;;;;;;;;;;;;;;4.12;nan;102697.28;5037395;28;19917;-85
2022/01/12 13:17:41;;;;;;;;;;;;;;;4.20;nan;102699.66;5033430;28;20417;-85
2022/01/12 13:22:44;;;;;;;;;;;;;;;4.20;nan;102710.13;5034596;28;20375;-84
2022/01/12 13:25:11;;;;;;;;;;;;;;;3.95;nan;102712.75;5037070;28;19944;-85
2022/01/12 13:27:37;;;;;;;;;;;;;;;4.07;nan;102721.94;5034471;28;20363;-85
2022/01/12 13:30:04;;;;;;;;;;;;;;;4.08;nan;102715.81;5035051;28;19940;-85
2022/01/12 13:32:29;;;;;;;;;;;;;;;4.00;nan;102729.16;5026598;28;19922;-85
2022/01/12 13:34:59;;;;;;;;;;;;;;;4.05;nan;102729.84;5031869;28;20008;-85
2022/01/12 13:37:25;;;;;;;;;;;;;;;4.12;nan;102731.31;5030024;28;19928;-85
2022/01/12 13:40:10;;;;;;;;;;;;;;;4.02;nan;102733.41;5033765;28;19917;-85
2022/01/12 13:42:53;;;;;;;;;;;;;;;4.16;nan;102734.69;5027983;28;20206;-85
2022/01/12 13:45:22;;;;;;;;;;;;;;;4.03;nan;102731.69;5049532;28;20181;-85
2022/01/12 13:47:52;;;;;;;;;;;;;;;4.11;nan;102731.41;5033307;28;19928;-85
2022/01/12 13:50:19;;;;;;;;;;;;;;;4.07;nan;102733.25;5025478;28;19921;-84
2022/01/12 13:52:54;;;;;;;;;;;;;;;4.12;nan;102731.31;5035126;28;19929;-85
2022/01/12 13:55:19;;;;;;;;;;;;;;;3.99;nan;102727.47;5036176;28;19917;-85
2022/01/12 13:57:45;;;;;;;;;;;;;;;3.96;nan;102728.44;5033178;28;19929;-85
2022/01/12 14:00:18;;;;;;;;;;;;;;;3.92;nan;102729.44;5034743;28;19917;-85
2022/01/12 14:02:45;;;;;;;;;;;;;;;3.95;nan;102728.47;5027780;28;19921;-85
2022/01/12 14:05:17;;;;;;;;;;;;;;;4.05;nan;102732.47;5037735;28;19921;-85
2022/01/12 14:07:51;;;;;;;;;;;;;;;4.22;nan;102727.47;5029691;28;19925;-85
2022/01/12 14:10:16;;;;;;;;;;;;;;;4.30;nan;102721.09;5036596;28;19929;-85
2022/01/12 14:12:49;;;;;;;;;;;;;;;4.25;nan;102719.50;5034573;28;19928;-85
2022/01/12 14:15:20;;;;;;;;;;;;;;;4.41;nan;102732.91;5034300;28;19967;-85
2022/01/12 14:17:48;;;;;;;;;;;;;;;4.29;nan;102724.63;5037687;28;19924;-84
2022/01/12 14:20:22;;;;;;;;;;;;;;;4.28;nan;102739.50;5037536;28;19928;-84
2022/01/12 14:22:47;;;;;;;;;;;;;;;4.22;nan;102743.19;5027847;28;19917;-84
2022/01/12 14:25:14;;;;;;;;;;;;;;;4.14;nan;102729.50;5060218;28;20383;-84